Esquel, Argentina
Current Conditions -  °F | °C
As of 2:00 AM on Tuesday 21 Oct 2014 (Local Time) from SAVE Reporting Station
Few Clouds Few Clouds  
Wind Chill: 11°   Ceiling: Unl
Heat Index: 11°   Visibility: 6mi
Dew Point:   Wind: 17mph
Humidity: 62%   Direction: 270°W
Pressure: 29.77"   Gusts: NA
Location:  42.91°S, 71.32°W
Report Text: SAVE 210500Z 27015KT 9999 FEW030 11/04 Q1008
Loading
Personal Weather Stations






























Interactive Weather Map
Tropical Storm Tracking
New forecast layout! Learn more

10-Day Weather Forecast

Advertisements
Track Severe Weather on mobile